createdAt,value
2019-05-25T00:00:49.973Z,13.72
2019-05-25T00:01:49.942Z,13.87
2019-05-25T00:02:49.940Z,14.08
2019-05-25T00:03:49.932Z,14.23
2019-05-25T00:04:49.937Z,14.28
2019-05-25T00:05:49.879Z,14.32
2019-05-25T00:06:49.843Z,14.45
2019-05-25T00:07:49.824Z,14.43
2019-05-25T00:08:49.809Z,14.60
2019-05-25T00:09:49.804Z,14.62
2019-05-25T00:10:49.777Z,14.70
2019-05-25T00:11:49.743Z,14.82
2019-05-25T00:12:49.705Z,14.96
2019-05-25T00:13:49.708Z,15.00
2019-05-25T00:14:49.698Z,14.88
2019-05-25T00:15:49.697Z,14.97
2019-05-25T00:16:49.631Z,14.84
2019-05-25T00:17:49.606Z,14.82
2019-05-25T00:18:49.566Z,14.70
2019-05-25T00:19:49.584Z,14.66
2019-05-25T00:20:49.575Z,14.41
2019-05-25T00:21:49.529Z,14.45
2019-05-25T00:22:49.497Z,14.30
2019-05-25T00:23:49.475Z,14.18
2019-05-25T00:24:49.465Z,14.11
2019-05-25T00:25:49.433Z,13.96
2019-05-25T00:26:49.414Z,13.89
2019-05-25T00:27:49.417Z,13.75
2019-05-25T00:28:49.455Z,13.72
2019-05-25T00:29:49.358Z,13.63
2019-05-25T00:30:49.388Z,13.60
2019-05-25T00:31:49.306Z,13.59
2019-05-25T00:32:49.347Z,13.53
2019-05-25T00:33:49.267Z,13.41
2019-05-25T00:34:49.259Z,13.39
2019-05-25T00:35:49.221Z,13.27
2019-05-25T00:36:49.199Z,13.33
2019-05-25T00:37:49.202Z,13.25
2019-05-25T00:38:49.156Z,13.18
2019-05-25T00:39:49.132Z,13.27
2019-05-25T00:40:57.771Z,13.19
2019-05-25T00:42:42.019Z,13.20
2019-05-25T00:43:41.971Z,13.13
2019-05-25T00:45:35.089Z,13.20
2019-05-25T00:46:34.848Z,13.16
2019-05-25T00:48:27.724Z,13.13
2019-05-25T00:49:27.704Z,13.18
2019-05-25T00:51:20.630Z,13.41
2019-05-25T00:52:20.561Z,13.47
2019-05-25T00:54:27.168Z,13.60
2019-05-25T00:55:13.425Z,13.52
2019-05-25T00:57:23.454Z,13.53
2019-05-25T00:58:23.459Z,13.54
2019-05-25T01:00:26.289Z,13.63
2019-05-25T01:01:26.203Z,13.63
2019-05-25T01:02:26.183Z,13.70
2019-05-25T01:03:26.189Z,13.68
2019-05-25T01:04:26.160Z,13.59
2019-05-25T01:05:26.156Z,13.56
2019-05-25T01:06:26.111Z,13.57
2019-05-25T01:07:26.094Z,13.56
2019-05-25T01:08:26.072Z,13.62
2019-05-25T01:09:26.069Z,13.60
2019-05-25T01:10:26.022Z,13.62
2019-05-25T01:11:25.989Z,13.63
2019-05-25T01:12:26.021Z,13.62
2019-05-25T01:13:25.950Z,13.68
2019-05-25T01:14:25.950Z,13.87
2019-05-25T01:15:25.982Z,13.86
2019-05-25T01:16:25.914Z,13.81
2019-05-25T01:17:25.864Z,13.83
2019-05-25T01:18:25.888Z,13.93
2019-05-25T01:19:25.837Z,13.96
2019-05-25T01:20:25.818Z,14.04
2019-05-25T01:21:25.806Z,14.08
2019-05-25T01:22:25.767Z,14.17
2019-05-25T01:23:25.826Z,14.15
2019-05-25T01:24:25.737Z,14.14
2019-05-25T01:25:25.735Z,14.08
2019-05-25T01:26:25.680Z,13.89
2019-05-25T01:27:25.649Z,13.86
2019-05-25T01:28:25.632Z,13.60
2019-05-25T01:29:25.606Z,13.30
2019-05-25T01:30:25.604Z,13.27
2019-05-25T01:31:25.572Z,13.04
2019-05-25T01:32:25.542Z,12.85
2019-05-25T01:33:25.530Z,12.62
2019-05-25T01:34:25.543Z,12.58
2019-05-25T01:35:25.490Z,12.57
2019-05-25T01:36:25.468Z,12.43
2019-05-25T01:37:25.482Z,12.29
2019-05-25T01:38:25.425Z,12.29
2019-05-25T01:39:25.397Z,12.24
2019-05-25T01:40:25.384Z,12.21
2019-05-25T01:41:25.392Z,12.21
2019-05-25T01:42:25.375Z,12.28
2019-05-25T01:43:25.360Z,12.31
2019-05-25T01:44:25.318Z,12.32
2019-05-25T01:45:25.285Z,12.25
2019-05-25T01:46:25.266Z,12.31
2019-05-25T01:47:25.208Z,12.27
2019-05-25T01:48:25.206Z,12.25
2019-05-25T01:49:25.171Z,12.29
2019-05-25T01:50:25.262Z,12.32
2019-05-25T01:51:25.116Z,12.37
2019-05-25T01:52:25.146Z,12.45
2019-05-25T01:53:25.080Z,12.53
2019-05-25T01:54:25.057Z,12.58
2019-05-25T01:55:25.059Z,12.61
2019-05-25T01:56:25.019Z,12.73
2019-05-25T01:57:24.983Z,12.97
2019-05-25T01:58:24.965Z,13.05
2019-05-25T01:59:24.970Z,13.20
2019-05-25T02:00:24.924Z,13.09
2019-05-25T02:01:24.905Z,13.23
2019-05-25T02:02:24.896Z,13.16
2019-05-25T02:03:24.852Z,13.30
2019-05-25T02:04:24.859Z,13.30
2019-05-25T02:05:24.813Z,13.41
2019-05-25T02:06:24.793Z,13.42
2019-05-25T02:07:24.773Z,13.49
2019-05-25T02:08:24.751Z,13.49
2019-05-25T02:09:24.735Z,13.56
2019-05-25T02:10:24.813Z,13.59
2019-05-25T02:11:24.704Z,13.65
2019-05-25T02:12:24.735Z,13.62
2019-05-25T02:13:24.718Z,13.70
2019-05-25T02:14:24.677Z,13.67
2019-05-25T02:15:24.613Z,13.68
2019-05-25T02:16:24.602Z,13.63
2019-05-25T02:17:24.570Z,13.67
2019-05-25T02:18:24.574Z,13.65
2019-05-25T02:19:24.531Z,13.65
2019-05-25T02:20:24.509Z,13.68
2019-05-25T02:21:24.486Z,13.74
2019-05-25T02:22:24.445Z,13.74
2019-05-25T02:23:24.441Z,13.77
2019-05-25T02:24:24.486Z,13.85
2019-05-25T02:25:24.375Z,13.86
2019-05-25T02:26:24.371Z,13.86
2019-05-25T02:27:24.345Z,13.86
2019-05-25T02:28:24.315Z,13.87
2019-05-25T02:29:24.293Z,13.85
2019-05-25T02:30:24.300Z,13.86
2019-05-25T02:31:24.272Z,13.83
2019-05-25T02:32:24.241Z,13.72
2019-05-25T02:33:24.249Z,13.71
2019-05-25T02:34:24.190Z,13.59
2019-05-25T02:35:24.203Z,13.68
2019-05-25T02:36:24.153Z,13.59
2019-05-25T02:37:24.122Z,13.54
2019-05-25T02:38:24.110Z,13.50
2019-05-25T02:39:24.118Z,13.41
2019-05-25T02:40:24.054Z,13.39
2019-05-25T02:41:24.060Z,13.30
2019-05-25T02:42:24.011Z,13.25
2019-05-25T02:43:23.988Z,13.28
2019-05-25T02:44:23.975Z,13.31
2019-05-25T02:45:23.951Z,13.33
2019-05-25T02:46:23.952Z,13.27
2019-05-25T02:47:23.933Z,13.28
2019-05-25T02:48:23.909Z,13.27
2019-05-25T02:49:23.893Z,13.15
2019-05-25T02:50:23.842Z,13.23
2019-05-25T02:51:23.817Z,13.27
2019-05-25T02:52:23.791Z,13.11
2019-05-25T02:53:23.779Z,13.20
2019-05-25T02:54:23.763Z,13.16
2019-05-25T02:55:33.853Z,13.03
2019-05-25T02:56:23.723Z,13.03
2019-05-25T02:57:23.704Z,12.90
2019-05-25T02:58:23.668Z,12.90
2019-05-25T02:59:23.670Z,12.78
2019-05-25T03:00:23.648Z,12.75
2019-05-25T03:01:23.612Z,12.68
2019-05-25T03:02:23.600Z,12.79
2019-05-25T03:03:23.581Z,12.76
2019-05-25T03:04:23.536Z,12.79
2019-05-25T03:05:23.531Z,12.70
2019-05-25T03:06:23.514Z,12.65
2019-05-25T03:07:23.540Z,12.76
2019-05-25T03:08:23.531Z,12.65
2019-05-25T03:09:23.442Z,12.62
2019-05-25T03:10:23.399Z,12.67
2019-05-25T03:11:31.065Z,12.64
2019-05-25T03:13:17.787Z,12.50
2019-05-25T03:14:17.735Z,12.42
2019-05-25T03:16:10.620Z,12.46
2019-05-25T03:17:10.565Z,12.45
2019-05-25T03:19:03.464Z,12.40
2019-05-25T03:20:03.436Z,12.35
2019-05-25T03:22:10.130Z,12.40
2019-05-25T03:23:09.538Z,12.43
2019-05-25T03:25:03.904Z,12.40
2019-05-25T03:26:03.879Z,12.39
2019-05-25T03:27:56.762Z,12.46
2019-05-25T03:28:56.713Z,12.46
2019-05-25T03:31:03.138Z,12.43
2019-05-25T03:32:03.057Z,12.50
2019-05-25T03:33:59.939Z,12.57
2019-05-25T03:34:59.915Z,12.64
2019-05-25T03:36:53.479Z,12.58
2019-05-25T03:37:52.784Z,12.60
2019-05-25T03:39:58.693Z,12.67
2019-05-25T03:40:58.679Z,12.64
2019-05-25T03:41:58.649Z,12.70
2019-05-25T03:42:58.607Z,12.79
2019-05-25T03:43:58.586Z,12.78
2019-05-25T03:44:58.566Z,12.79
2019-05-25T03:45:58.546Z,12.83
2019-05-25T03:46:58.565Z,12.90
2019-05-25T03:47:58.554Z,12.90
2019-05-25T03:48:58.492Z,12.83
2019-05-25T03:49:58.468Z,12.95
2019-05-25T03:50:58.477Z,13.04
2019-05-25T03:51:58.440Z,13.03
2019-05-25T03:52:58.394Z,13.12
2019-05-25T03:53:58.400Z,13.12
2019-05-25T03:54:58.380Z,13.19
2019-05-25T03:56:05.701Z,13.23
2019-05-25T03:56:58.318Z,13.22
2019-05-25T03:57:58.315Z,13.25
2019-05-25T03:58:58.296Z,13.15
2019-05-25T03:59:58.245Z,13.15
2019-05-25T04:00:58.237Z,13.25
2019-05-25T04:01:58.235Z,13.35
2019-05-25T04:02:58.251Z,13.41
2019-05-25T04:03:58.171Z,13.50
2019-05-25T04:04:58.134Z,13.59
2019-05-25T04:05:58.119Z,13.65
2019-05-25T04:07:06.758Z,13.67
2019-05-25T04:08:51.011Z,13.85
2019-05-25T04:09:50.959Z,13.93
2019-05-25T04:11:43.877Z,13.99
2019-05-25T04:12:43.822Z,14.12
2019-05-25T04:13:43.827Z,14.18
2019-05-25T04:14:43.782Z,14.20
2019-05-25T04:15:43.764Z,14.26
2019-05-25T04:16:43.740Z,14.18
2019-05-25T04:17:43.721Z,14.30
2019-05-25T04:18:43.700Z,14.28
2019-05-25T04:19:43.687Z,14.40
2019-05-25T04:20:43.672Z,14.45
2019-05-25T04:21:43.640Z,14.36
2019-05-25T04:22:43.619Z,14.48
2019-05-25T04:23:43.601Z,14.54
2019-05-25T04:24:43.577Z,14.55
2019-05-25T04:25:43.562Z,14.47
2019-05-25T04:26:43.536Z,14.41
2019-05-25T04:27:43.537Z,14.36
2019-05-25T04:28:43.498Z,14.30
2019-05-25T04:29:43.478Z,14.17
2019-05-25T04:30:43.475Z,14.29
2019-05-25T04:31:43.431Z,14.23
2019-05-25T04:32:43.416Z,14.11
2019-05-25T04:33:43.397Z,14.08
2019-05-25T04:34:43.378Z,14.12
2019-05-25T04:35:43.356Z,14.22
2019-05-25T04:36:43.335Z,14.17
2019-05-25T04:37:43.375Z,14.17
2019-05-25T04:38:43.333Z,14.29
2019-05-25T04:39:43.273Z,14.32
2019-05-25T04:40:43.254Z,14.33
2019-05-25T04:41:43.229Z,14.30
2019-05-25T04:42:43.214Z,14.44
2019-05-25T04:43:43.194Z,14.48
2019-05-25T04:44:43.168Z,14.53
2019-05-25T04:45:50.345Z,14.51
2019-05-25T04:47:36.494Z,14.48
2019-05-25T04:48:36.213Z,14.58
2019-05-25T04:50:32.138Z,14.54
2019-05-25T04:51:32.100Z,14.60
2019-05-25T04:53:26.608Z,14.66
2019-05-25T04:54:26.546Z,14.70
2019-05-25T04:55:26.532Z,14.77
2019-05-25T04:56:39.095Z,14.82
2019-05-25T04:57:26.513Z,14.82
2019-05-25T04:58:26.463Z,14.94
2019-05-25T04:59:26.471Z,15.00
2019-05-25T05:00:26.450Z,14.89
2019-05-25T05:01:26.467Z,14.99
2019-05-25T05:02:26.412Z,15.03
2019-05-25T05:03:26.364Z,15.07
2019-05-25T05:04:26.354Z,15.10
2019-05-25T05:05:26.328Z,15.10
2019-05-25T05:06:26.313Z,15.14
2019-05-25T05:07:26.375Z,15.11
2019-05-25T05:08:26.282Z,15.14
2019-05-25T05:09:26.264Z,15.11
2019-05-25T05:10:26.231Z,15.33
2019-05-25T05:11:26.219Z,15.40
2019-05-25T05:12:26.204Z,15.39
2019-05-25T05:13:26.176Z,15.44
2019-05-25T05:14:26.062Z,15.43
2019-05-25T05:15:26.148Z,15.47
2019-05-25T05:16:26.125Z,15.51
2019-05-25T05:17:26.116Z,15.47
2019-05-25T05:18:26.073Z,15.49
2019-05-25T05:19:26.058Z,15.55
2019-05-25T05:20:26.105Z,15.55
2019-05-25T05:21:26.020Z,15.52
2019-05-25T05:22:26.019Z,15.65
2019-05-25T05:23:26.018Z,15.70
2019-05-25T05:24:25.995Z,15.72
2019-05-25T05:25:25.963Z,15.72
2019-05-25T05:26:25.953Z,15.67
2019-05-25T05:27:25.910Z,15.72
2019-05-25T05:28:25.914Z,15.70
2019-05-25T05:29:25.819Z,15.77
2019-05-25T05:30:25.874Z,15.79
2019-05-25T05:31:25.862Z,15.83
2019-05-25T05:32:27.877Z,15.84
2019-05-25T05:33:25.833Z,15.88
2019-05-25T05:34:25.784Z,16.02
2019-05-25T05:35:25.746Z,16.42
2019-05-25T05:36:25.745Z,16.68
2019-05-25T05:37:25.785Z,16.83
2019-05-25T05:38:25.707Z,17.05
2019-05-25T05:39:25.683Z,17.26
2019-05-25T05:40:25.661Z,17.16
2019-05-25T05:41:25.543Z,17.12
2019-05-25T05:42:25.646Z,17.22
2019-05-25T05:43:25.607Z,17.05
2019-05-25T05:44:25.629Z,17.15
2019-05-25T05:45:25.567Z,17.16
2019-05-25T05:46:25.579Z,17.12
2019-05-25T05:47:25.565Z,17.14
2019-05-25T05:48:25.515Z,17.24
2019-05-25T05:49:25.487Z,17.39
2019-05-25T05:50:25.489Z,17.57
2019-05-25T05:51:27.239Z,17.64
2019-05-25T05:52:25.451Z,17.60
2019-05-25T05:53:25.420Z,17.67
2019-05-25T05:54:25.413Z,17.54
2019-05-25T05:55:25.433Z,17.38
2019-05-25T05:56:25.390Z,17.20
2019-05-25T05:57:25.367Z,17.12
2019-05-25T05:58:25.352Z,17.08
2019-05-25T05:59:25.325Z,17.05
2019-05-25T06:00:25.328Z,16.78
2019-05-25T06:01:25.295Z,16.87
2019-05-25T06:02:25.289Z,16.83
2019-05-25T06:03:25.263Z,16.83
2019-05-25T06:04:25.266Z,16.79
2019-05-25T06:05:25.246Z,16.68
2019-05-25T06:06:25.203Z,16.81
2019-05-25T06:07:27.370Z,16.83
2019-05-25T06:08:25.183Z,16.89
2019-05-25T06:09:25.141Z,16.99
2019-05-25T06:10:25.125Z,17.09
2019-05-25T06:11:25.162Z,17.24
2019-05-25T06:12:25.173Z,17.52
2019-05-25T06:13:25.071Z,17.67
2019-05-25T06:14:25.091Z,18.07
2019-05-25T06:15:25.089Z,18.49
2019-05-25T06:16:25.033Z,18.95
2019-05-25T06:17:25.018Z,19.30
2019-05-25T06:18:25.010Z,19.79
2019-05-25T06:19:24.994Z,20.09
2019-05-25T06:20:24.989Z,20.41
2019-05-25T06:21:24.959Z,20.70
2019-05-25T06:22:24.924Z,20.92
2019-05-25T06:23:24.917Z,21.22
2019-05-25T06:24:24.808Z,21.45
2019-05-25T06:25:24.899Z,21.70
2019-05-25T06:26:24.896Z,21.69
2019-05-25T06:27:27.734Z,21.67
2019-05-25T06:28:24.893Z,21.54
2019-05-25T06:29:24.836Z,21.54
2019-05-25T06:30:24.840Z,21.93
2019-05-25T06:31:24.820Z,21.76
2019-05-25T06:32:24.820Z,21.36
2019-05-25T06:33:24.797Z,20.90
2019-05-25T06:34:24.830Z,20.66
2019-05-25T06:35:24.745Z,21.14
2019-05-25T06:36:24.750Z,21.29
2019-05-25T06:37:24.741Z,21.57
2019-05-25T06:38:24.731Z,21.58
2019-05-25T06:39:24.700Z,21.67
2019-05-25T06:40:24.703Z,21.79
2019-05-25T06:41:24.680Z,21.70
2019-05-25T06:42:24.669Z,22.02
2019-05-25T06:43:33.217Z,22.36
2019-05-25T06:45:17.511Z,22.65
2019-05-25T06:46:17.451Z,22.80
2019-05-25T06:48:11.080Z,22.41
2019-05-25T06:49:10.341Z,22.14
2019-05-25T06:51:03.282Z,22.29
2019-05-25T06:52:03.247Z,22.47
2019-05-25T06:53:56.374Z,21.77
2019-05-25T06:54:56.141Z,21.52
2019-05-25T06:56:50.070Z,20.60
2019-05-25T06:57:50.041Z,20.26
2019-05-25T06:59:42.984Z,20.31
2019-05-25T07:00:42.959Z,20.60
2019-05-25T07:02:35.868Z,20.90
2019-05-25T07:03:35.824Z,20.99
2019-05-25T07:05:29.749Z,21.11
2019-05-25T07:06:29.730Z,21.22
2019-05-25T07:08:22.662Z,20.40
2019-05-25T07:09:22.622Z,19.92
2019-05-25T07:11:15.621Z,19.70
2019-05-25T07:12:15.589Z,19.77
2019-05-25T07:14:10.133Z,21.06
2019-05-25T07:15:10.097Z,21.30
2019-05-25T07:17:03.489Z,21.51
2019-05-25T07:18:03.457Z,22.06
2019-05-25T07:19:57.883Z,22.66
2019-05-25T07:20:57.844Z,22.76
2019-05-25T07:22:51.433Z,23.43
2019-05-25T07:23:50.742Z,23.61
2019-05-25T07:25:44.666Z,23.36
2019-05-25T07:26:44.665Z,23.03
2019-05-25T07:28:37.813Z,23.31
2019-05-25T07:29:37.545Z,23.69
2019-05-25T07:31:30.432Z,22.51
2019-05-25T07:32:30.423Z,22.75
2019-05-25T07:34:23.359Z,23.98
2019-05-25T07:35:23.327Z,24.32
2019-05-25T07:37:16.234Z,23.44
2019-05-25T07:38:16.217Z,23.96
2019-05-25T07:40:09.192Z,24.53
2019-05-25T07:41:09.096Z,24.93
2019-05-25T07:43:03.001Z,25.58
2019-05-25T07:44:02.448Z,25.48
2019-05-25T07:45:02.446Z,24.68
2019-05-25T07:46:02.433Z,24.16
2019-05-25T07:47:02.422Z,23.73
2019-05-25T07:48:02.410Z,23.48
2019-05-25T07:49:02.416Z,23.54
2019-05-25T07:50:02.393Z,23.40
2019-05-25T07:51:02.398Z,23.74
2019-05-25T07:52:02.923Z,24.51
2019-05-25T07:53:02.361Z,25.01
2019-05-25T07:54:02.355Z,25.40
2019-05-25T07:55:02.335Z,25.84
2019-05-25T07:56:02.333Z,26.06
2019-05-25T07:57:02.324Z,26.07
2019-05-25T07:58:15.859Z,25.88
2019-05-25T07:59:02.320Z,25.43
2019-05-25T08:00:02.289Z,24.68
2019-05-25T08:01:02.279Z,24.38
2019-05-25T08:02:02.270Z,24.45
2019-05-25T08:03:02.261Z,23.71
2019-05-25T08:04:02.253Z,23.09
2019-05-25T08:05:02.244Z,22.68
2019-05-25T08:06:02.232Z,22.28
2019-05-25T08:07:02.249Z,22.41
2019-05-25T08:08:03.216Z,22.69
2019-05-25T08:09:02.201Z,22.98
2019-05-25T08:10:02.191Z,23.37
2019-05-25T08:11:02.175Z,23.71
2019-05-25T08:12:02.167Z,23.63
2019-05-25T08:13:02.161Z,23.91
2019-05-25T08:14:02.152Z,23.80
2019-05-25T08:15:02.164Z,24.20
2019-05-25T08:16:02.121Z,24.02
2019-05-25T08:17:02.112Z,23.84
2019-05-25T08:18:02.118Z,24.16
2019-05-25T08:19:02.114Z,24.48
2019-05-25T08:20:02.085Z,24.89
2019-05-25T08:21:02.072Z,24.68
2019-05-25T08:22:02.064Z,24.51
2019-05-25T08:23:02.057Z,24.16
2019-05-25T08:24:02.039Z,24.11
2019-05-25T08:25:02.033Z,23.48
2019-05-25T08:26:02.024Z,23.34
2019-05-25T08:27:02.025Z,23.84
2019-05-25T08:28:02.005Z,23.96
2019-05-25T08:29:01.998Z,23.91
2019-05-25T08:30:02.016Z,24.20
2019-05-25T08:31:01.995Z,24.63
2019-05-25T08:32:01.958Z,24.95
2019-05-25T08:33:01.960Z,25.22
2019-05-25T08:34:01.944Z,25.32
2019-05-25T08:35:01.939Z,25.78
2019-05-25T08:36:01.935Z,26.44
2019-05-25T08:37:01.916Z,26.74
2019-05-25T08:38:01.905Z,26.95
2019-05-25T08:39:01.898Z,27.39
2019-05-25T08:40:01.905Z,27.98
2019-05-25T08:41:01.882Z,28.47
2019-05-25T08:42:01.865Z,28.51
2019-05-25T08:43:01.856Z,28.78
2019-05-25T08:44:04.417Z,28.96
2019-05-25T08:45:01.845Z,28.88
2019-05-25T08:46:01.834Z,27.95
2019-05-25T08:47:01.832Z,26.60
2019-05-25T08:48:01.821Z,26.05
2019-05-25T08:49:01.812Z,25.47
2019-05-25T08:50:01.818Z,24.43
2019-05-25T08:51:01.796Z,23.46
2019-05-25T08:52:04.167Z,23.02
2019-05-25T08:53:01.785Z,22.68
2019-05-25T08:54:01.776Z,22.73
2019-05-25T08:55:01.835Z,22.62
2019-05-25T08:56:01.758Z,22.35
2019-05-25T08:57:01.804Z,22.75
2019-05-25T08:58:01.743Z,23.25
2019-05-25T08:59:01.729Z,23.24
2019-05-25T09:00:01.716Z,23.20
2019-05-25T09:01:01.715Z,22.99
2019-05-25T09:02:01.705Z,23.15
2019-05-25T09:03:01.692Z,23.15
2019-05-25T09:04:01.683Z,23.25
2019-05-25T09:05:01.676Z,23.31
2019-05-25T09:06:01.664Z,23.36
2019-05-25T09:07:01.659Z,23.21
2019-05-25T09:08:01.644Z,22.83
2019-05-25T09:09:01.633Z,22.65
2019-05-25T09:10:01.626Z,22.30
2019-05-25T09:11:01.614Z,21.88
2019-05-25T09:12:02.436Z,21.70
2019-05-25T09:13:01.597Z,21.67
2019-05-25T09:14:01.583Z,21.51
2019-05-25T09:15:01.573Z,21.51
2019-05-25T09:16:01.559Z,21.55
2019-05-25T09:17:01.557Z,21.57
2019-05-25T09:18:01.535Z,21.51
2019-05-25T09:19:01.531Z,21.55
2019-05-25T09:20:01.536Z,21.61
2019-05-25T09:21:01.505Z,21.43
2019-05-25T09:22:03.580Z,21.51
2019-05-25T09:23:01.499Z,21.57
2019-05-25T09:24:01.471Z,21.70
2019-05-25T09:25:01.461Z,21.85
2019-05-25T09:26:01.446Z,21.58
2019-05-25T09:27:01.435Z,21.96
2019-05-25T09:28:01.425Z,22.39
2019-05-25T09:29:04.577Z,22.38
2019-05-25T09:30:01.405Z,22.48
2019-05-25T09:31:01.394Z,22.51
2019-05-25T09:32:01.381Z,22.53
2019-05-25T09:33:01.414Z,22.30
2019-05-25T09:34:01.364Z,22.54
2019-05-25T09:35:01.347Z,22.07
2019-05-25T09:36:01.335Z,22.08
2019-05-25T09:37:01.319Z,22.08
2019-05-25T09:38:01.313Z,22.15
2019-05-25T09:39:01.299Z,22.25
2019-05-25T09:40:01.289Z,22.43
2019-05-25T09:41:01.276Z,22.72
2019-05-25T09:42:01.270Z,22.90
2019-05-25T09:43:01.252Z,23.32
2019-05-25T09:44:01.241Z,23.41
2019-05-25T09:45:01.235Z,23.28
2019-05-25T09:46:03.265Z,23.40
2019-05-25T09:47:01.211Z,23.34
2019-05-25T09:48:01.199Z,23.71
2019-05-25T09:49:01.188Z,23.91
2019-05-25T09:50:01.178Z,23.88
2019-05-25T09:51:01.214Z,23.84
2019-05-25T09:52:01.153Z,24.14
2019-05-25T09:53:01.149Z,23.92
2019-05-25T09:54:01.133Z,24.20
2019-05-25T09:55:01.123Z,24.16
2019-05-25T09:56:01.124Z,24.20
2019-05-25T09:57:01.131Z,23.61
2019-05-25T09:58:01.089Z,23.06
2019-05-25T09:59:01.084Z,22.68
2019-05-25T10:00:01.073Z,22.45
2019-05-25T10:01:01.062Z,22.29
2019-05-25T10:02:01.049Z,22.11
2019-05-25T10:03:01.050Z,22.38
2019-05-25T10:04:09.234Z,22.78
2019-05-25T10:06:10.984Z,22.65
2019-05-25T10:07:02.119Z,23.10
2019-05-25T10:08:55.030Z,22.50
2019-05-25T10:09:55.007Z,22.17
2019-05-25T10:11:49.551Z,21.62
2019-05-25T10:12:40.757Z,21.45
2019-05-25T10:14:35.172Z,21.17
2019-05-25T10:15:34.107Z,20.67
2019-05-25T10:17:27.037Z,20.87
2019-05-25T10:18:27.003Z,21.70
2019-05-25T10:20:19.931Z,22.36
2019-05-25T10:21:19.897Z,22.98
2019-05-25T10:23:12.785Z,23.74
2019-05-25T10:24:12.773Z,23.80
2019-05-25T10:25:12.881Z,23.84
2019-05-25T10:26:12.751Z,23.83
2019-05-25T10:27:12.759Z,23.71
2019-05-25T10:28:12.781Z,24.38
2019-05-25T10:29:12.716Z,25.01
2019-05-25T10:30:12.705Z,25.69
2019-05-25T10:31:12.702Z,26.22
2019-05-25T10:32:12.695Z,26.29
2019-05-25T10:33:12.682Z,26.51
2019-05-25T10:34:12.699Z,26.71
2019-05-25T10:35:12.658Z,26.80
2019-05-25T10:36:12.678Z,27.27
2019-05-25T10:37:12.633Z,27.54
2019-05-25T10:38:12.628Z,27.52
2019-05-25T10:39:12.622Z,27.12
2019-05-25T10:40:12.617Z,26.93
2019-05-25T10:41:12.604Z,27.42
2019-05-25T10:42:12.590Z,27.47
2019-05-25T10:43:12.588Z,27.77
2019-05-25T10:44:12.578Z,28.23
2019-05-25T10:45:12.577Z,28.74
2019-05-25T10:46:12.572Z,29.10
2019-05-25T10:47:12.563Z,29.26
2019-05-25T10:48:12.541Z,29.17
2019-05-25T10:49:12.544Z,29.07
2019-05-25T10:50:12.535Z,29.34
2019-05-25T10:51:12.526Z,29.14
2019-05-25T10:52:12.524Z,28.02
2019-05-25T10:53:12.508Z,26.75
2019-05-25T10:54:12.507Z,26.05
2019-05-25T10:55:12.518Z,26.25
2019-05-25T10:56:12.495Z,25.95
2019-05-25T10:57:13.389Z,25.47
2019-05-25T10:58:12.476Z,25.54
2019-05-25T10:59:12.473Z,25.47
2019-05-25T11:00:12.467Z,24.39
2019-05-25T11:01:12.464Z,24.17
2019-05-25T11:02:12.453Z,23.69
2019-05-25T11:03:12.451Z,23.86
2019-05-25T11:04:12.437Z,24.17
2019-05-25T11:05:12.454Z,24.26
2019-05-25T11:06:12.433Z,23.12
2019-05-25T11:07:12.424Z,22.63
2019-05-25T11:08:12.416Z,22.39
2019-05-25T11:09:12.421Z,22.76
2019-05-25T11:10:12.402Z,23.31
2019-05-25T11:11:12.406Z,23.58
2019-05-25T11:12:12.385Z,23.46
2019-05-25T11:13:12.380Z,23.25
2019-05-25T11:14:12.376Z,23.51
2019-05-25T11:15:12.363Z,24.08
2019-05-25T11:16:12.358Z,24.17
2019-05-25T11:17:12.360Z,24.20
2019-05-25T11:18:12.347Z,24.14
2019-05-25T11:19:12.334Z,23.63
2019-05-25T11:20:12.330Z,23.71
2019-05-25T11:21:12.329Z,23.10
2019-05-25T11:22:12.315Z,22.83
2019-05-25T11:23:12.305Z,22.14
2019-05-25T11:24:12.297Z,22.29
2019-05-25T11:25:12.293Z,23.15
2019-05-25T11:26:12.282Z,23.78
2019-05-25T11:27:12.281Z,24.18
2019-05-25T11:28:12.263Z,24.92
2019-05-25T11:29:12.261Z,24.53
2019-05-25T11:30:12.252Z,23.96
2019-05-25T11:31:12.247Z,24.66
2019-05-25T11:32:12.236Z,25.22
2019-05-25T11:33:12.225Z,26.10
2019-05-25T11:34:12.219Z,26.00
2019-05-25T11:35:12.253Z,25.59
2019-05-25T11:36:12.226Z,25.36
2019-05-25T11:37:15.425Z,25.32
2019-05-25T11:38:12.189Z,25.18
2019-05-25T11:39:12.181Z,25.80
2019-05-25T11:40:12.172Z,25.83
2019-05-25T11:41:12.164Z,25.98
2019-05-25T11:42:12.150Z,25.80
2019-05-25T11:43:12.145Z,25.90
2019-05-25T11:44:12.136Z,26.03
2019-05-25T11:45:12.123Z,26.37
2019-05-25T11:46:12.122Z,26.19
2019-05-25T11:47:12.114Z,26.84
2019-05-25T11:48:12.104Z,27.44
2019-05-25T11:49:22.240Z,27.65
2019-05-25T11:50:12.088Z,26.97
2019-05-25T11:51:12.079Z,26.05
2019-05-25T11:52:12.075Z,25.23
2019-05-25T11:53:12.067Z,24.54
2019-05-25T11:54:12.056Z,24.43
2019-05-25T11:55:12.045Z,23.92
2019-05-25T11:56:12.038Z,23.76
2019-05-25T11:57:12.032Z,23.88
2019-05-25T11:58:12.028Z,23.46
2019-05-25T11:59:12.015Z,23.81
2019-05-25T12:00:24.508Z,24.81
2019-05-25T12:01:11.990Z,25.88
2019-05-25T12:02:11.990Z,26.58
2019-05-25T12:03:11.977Z,27.33
2019-05-25T12:04:11.966Z,27.54
2019-05-25T12:05:11.968Z,28.19
2019-05-25T12:06:11.950Z,28.39
2019-05-25T12:07:11.936Z,28.78
2019-05-25T12:08:11.932Z,28.35
2019-05-25T12:09:11.926Z,27.58
2019-05-25T12:10:12.058Z,27.51
2019-05-25T12:11:11.903Z,27.02
2019-05-25T12:12:11.897Z,27.17
2019-05-25T12:13:11.890Z,26.60
2019-05-25T12:14:11.895Z,26.47
2019-05-25T12:15:11.880Z,26.28
2019-05-25T12:16:11.871Z,27.00
2019-05-25T12:17:11.864Z,27.70
2019-05-25T12:18:11.853Z,28.04
2019-05-25T12:19:14.879Z,28.07
2019-05-25T12:20:11.839Z,28.37
2019-05-25T12:21:11.834Z,28.75
2019-05-25T12:22:11.824Z,28.26
2019-05-25T12:23:12.003Z,28.10
2019-05-25T12:24:11.813Z,27.51
2019-05-25T12:25:11.808Z,27.60
2019-05-25T12:26:11.801Z,27.96
2019-05-25T12:27:11.794Z,28.26
2019-05-25T12:28:11.786Z,28.78
2019-05-25T12:29:11.778Z,28.02
2019-05-25T12:30:11.771Z,27.49
2019-05-25T12:31:11.771Z,26.96
2019-05-25T12:32:11.761Z,26.55
2019-05-25T12:33:11.755Z,26.43
2019-05-25T12:34:11.745Z,26.45
2019-05-25T12:35:11.751Z,26.71
2019-05-25T12:36:11.738Z,26.13
2019-05-25T12:37:11.727Z,26.53
2019-05-25T12:38:11.722Z,26.66
2019-05-25T12:39:11.722Z,26.83
2019-05-25T12:40:27.450Z,27.40
2019-05-25T12:42:12.324Z,28.20
2019-05-25T12:43:05.115Z,28.63
2019-05-25T12:44:59.044Z,29.47
2019-05-25T12:45:59.019Z,29.72
2019-05-25T12:46:59.012Z,29.88
2019-05-25T12:47:59.011Z,29.26
2019-05-25T12:48:59.002Z,28.17
2019-05-25T12:49:58.989Z,28.04
2019-05-25T12:50:59.028Z,28.42
2019-05-25T12:51:59.009Z,28.69
2019-05-25T12:52:58.972Z,28.86
2019-05-25T12:53:58.965Z,29.10
2019-05-25T12:54:58.954Z,28.94
2019-05-25T12:55:58.953Z,29.34
2019-05-25T12:57:02.468Z,28.56
2019-05-25T12:57:58.948Z,28.64
2019-05-25T12:58:58.947Z,28.38
2019-05-25T13:00:14.320Z,28.07
2019-05-25T13:00:58.922Z,27.92
2019-05-25T13:01:58.914Z,28.05
2019-05-25T13:02:58.916Z,28.01
2019-05-25T13:03:58.913Z,28.29
2019-05-25T13:04:58.910Z,28.69
2019-05-25T13:05:58.890Z,28.70
2019-05-25T13:06:58.884Z,27.75
2019-05-25T13:07:58.880Z,26.84
2019-05-25T13:08:58.873Z,26.78
2019-05-25T13:09:58.872Z,26.92
2019-05-25T13:10:58.871Z,26.90
2019-05-25T13:11:58.853Z,26.66
2019-05-25T13:13:01.949Z,26.88
2019-05-25T13:14:11.983Z,27.37
2019-05-25T13:14:58.830Z,27.95
2019-05-25T13:15:58.827Z,28.22
2019-05-25T13:16:58.820Z,28.93
2019-05-25T13:17:58.837Z,28.67
2019-05-25T13:18:58.810Z,28.78
2019-05-25T13:19:58.871Z,29.05
2019-05-25T13:20:58.793Z,29.59
2019-05-25T13:21:58.788Z,29.31
2019-05-25T13:22:58.791Z,29.42
2019-05-25T13:23:58.775Z,29.13
2019-05-25T13:24:58.764Z,27.98
2019-05-25T13:25:58.760Z,27.64
2019-05-25T13:26:58.763Z,27.67
2019-05-25T13:27:58.750Z,27.22
2019-05-25T13:28:58.743Z,27.18
2019-05-25T13:30:02.686Z,26.97
2019-05-25T13:31:10.744Z,27.20
2019-05-25T13:31:58.727Z,26.97
2019-05-25T13:32:58.717Z,26.63
2019-05-25T13:33:58.704Z,26.83
2019-05-25T13:34:58.695Z,27.03
2019-05-25T13:35:58.694Z,26.75
2019-05-25T13:37:05.887Z,26.73
2019-05-25T13:38:58.816Z,26.89
2019-05-25T13:39:58.788Z,26.36
2019-05-25T13:42:03.267Z,25.98